Time;durP1;ratioP1;P1;durP2;ratioP2;P2;SDS_P1;SDS_P2;PMS_P1;PMS_P2;Temp;Humidity;BMP_temperature;BMP_pressure;BME280_temperature;BME280_humidity;BME280_pressure;Samples;Min_cycle;Max_cycle;Signal;HPM_P1;HPM_P2
2022/07/12 00:01:32;;;;;;;;;0.50;0.50;;;;;24.02;48.10;101352.72;5065992;28;45587;-80
2022/07/12 00:03:57;;;;;;;;;1.00;1.00;;;;;24.14;48.23;101378.03;5063707;28;45288;-79
2022/07/12 00:06:23;;;;;;;;;1.00;1.00;;;;;24.10;48.28;101371.13;5066107;28;45484;-79
2022/07/12 00:08:48;;;;;;;;;1.75;1.75;;;;;24.08;48.36;101373.91;5045980;28;45558;-80
2022/07/12 00:11:14;;;;;;;;;0.50;0.50;;;;;24.00;48.54;101353.78;5063550;28;45620;-79
2022/07/12 00:13:39;;;;;;;;;1.00;1.00;;;;;23.94;49.04;101355.91;5061390;28;45637;-79
2022/07/12 00:16:05;;;;;;;;;0.50;0.00;;;;;23.97;48.88;101375.56;5057253;28;45266;-81
2022/07/12 00:18:30;;;;;;;;;0.50;0.50;;;;;23.82;48.67;101351.25;5060872;28;46429;-80
2022/07/12 00:20:56;;;;;;;;;0.00;0.00;;;;;23.67;49.54;101336.03;5062886;28;45421;-80
2022/07/12 00:23:21;;;;;;;;;2.50;1.00;;;;;23.76;49.59;101367.81;5073456;28;45532;-81
2022/07/12 00:25:46;;;;;;;;;1.00;1.00;;;;;23.50;49.67;101335.25;5062345;27;45433;-81
2022/07/12 00:28:12;;;;;;;;;1.25;1.25;;;;;23.69;49.76;101369.19;5063023;28;45459;-80
2022/07/12 00:30:37;;;;;;;;;1.50;1.50;;;;;23.32;49.82;101321.13;5056591;28;45354;-80
2022/07/12 00:33:03;;;;;;;;;0.00;0.00;;;;;23.64;49.77;101379.38;5068179;28;45430;-80
2022/07/12 00:35:28;;;;;;;;;3.00;1.75;;;;;23.64;49.97;101374.00;5072754;27;45339;-79
2022/07/12 00:37:53;;;;;;;;;1.75;0.00;;;;;23.61;49.96;101372.38;5067354;28;46230;-80
2022/07/12 00:40:19;;;;;;;;;0.00;0.00;;;;;23.60;49.60;101371.50;5062174;27;45360;-78
2022/07/12 00:42:45;;;;;;;;;1.00;1.00;;;;;23.21;50.04;101297.50;5070668;28;45365;-80
2022/07/12 00:45:10;;;;;;;;;0.50;0.00;;;;;23.40;49.98;101336.81;5069157;27;45383;-80
2022/07/12 00:47:44;;;;;;;;;0.00;0.00;;;;;23.39;50.12;101332.38;5061444;28;46430;-80
2022/07/12 00:50:21;;;;;;;;;0.50;0.50;;;;;23.53;50.37;101351.25;5070297;27;45473;-80
2022/07/12 00:52:49;;;;;;;;;1.00;0.00;;;;;23.42;49.79;101340.28;5092090;27;45396;-79
2022/07/12 00:55:16;;;;;;;;;0.25;0.25;;;;;23.47;49.87;101346.25;5055955;28;45491;-80
2022/07/12 00:57:43;;;;;;;;;0.00;0.00;;;;;23.50;50.17;101351.44;5072958;28;46396;-81
2022/07/12 01:00:10;;;;;;;;;1.50;1.50;;;;;23.51;50.07;101360.41;5064431;27;45364;-79
2022/07/12 01:02:37;;;;;;;;;0.75;0.75;;;;;23.13;50.48;101294.41;5070901;28;45308;-80
2022/07/12 01:05:05;;;;;;;;;1.50;1.00;;;;;23.39;50.42;101337.78;5060536;27;45433;-81
2022/07/12 01:07:30;;;;;;;;;1.00;1.00;;;;;23.45;49.93;101353.56;5062329;28;45598;-80
2022/07/12 01:09:56;;;;;;;;;0.25;0.25;;;;;23.41;50.52;101341.22;5062008;28;45427;-80
2022/07/12 01:12:23;;;;;;;;;2.00;2.00;;;;;23.41;50.92;101354.72;5072432;27;45458;-81
2022/07/12 01:14:49;;;;;;;;;0.00;0.00;;;;;23.31;50.67;101342.78;5072772;27;45415;-80
2022/07/12 01:17:16;;;;;;;;;2.75;1.75;;;;;23.33;51.03;101354.34;5066680;28;45441;-80
2022/07/12 01:19:42;;;;;;;;;1.00;1.00;;;;;22.90;50.79;101290.41;5071043;28;45426;-82
2022/07/12 01:22:10;;;;;;;;;2.00;2.00;;;;;23.26;51.03;101358.34;5074040;27;45285;-81
2022/07/12 01:24:36;;;;;;;;;1.50;1.50;;;;;23.23;50.49;101351.31;5073256;28;45561;-80
2022/07/12 01:27:06;;;;;;;;;0.25;0.25;;;;;23.01;50.85;101324.78;5069203;28;47085;-80
2022/07/12 01:29:32;;;;;;;;;3.25;1.25;;;;;23.04;50.81;101330.00;5062195;28;45457;-80
2022/07/12 01:34:51;;;;;;;;;1.00;1.00;;;;;23.04;51.39;101335.38;5071354;28;45463;-81
2022/07/12 01:37:18;;;;;;;;;1.00;1.00;;;;;23.15;51.12;101348.22;5075098;27;45516;-81
2022/07/12 01:39:50;;;;;;;;;1.00;1.00;;;;;23.16;51.13;101347.28;5067369;27;45519;-81
2022/07/12 01:42:15;;;;;;;;;0.50;0.50;;;;;22.97;51.43;101312.44;5070523;28;45336;-80
2022/07/12 01:44:41;;;;;;;;;1.75;1.25;;;;;23.10;51.26;101337.72;5074313;27;45422;-78
2022/07/12 01:47:06;;;;;;;;;1.00;1.00;;;;;23.12;51.26;101330.41;5062950;27;45463;-81
2022/07/12 01:49:32;;;;;;;;;1.75;1.00;;;;;23.11;51.32;101334.09;5069605;28;45573;-79
2022/07/12 01:51:58;;;;;;;;;1.25;1.25;;;;;23.10;51.86;101337.72;5064047;27;45488;-79
2022/07/12 01:54:25;;;;;;;;;3.75;2.00;;;;;23.07;51.78;101337.88;5072875;28;45539;-80
2022/07/12 01:56:51;;;;;;;;;2.50;1.75;;;;;23.12;51.51;101346.59;5073404;27;45540;-79
2022/07/12 01:59:17;;;;;;;;;1.25;1.25;;;;;23.11;51.56;101354.75;5072661;27;45336;-80
2022/07/12 02:01:43;;;;;;;;;2.00;2.00;;;;;23.09;52.06;101349.47;5069374;27;45386;-79
2022/07/12 02:04:09;;;;;;;;;4.50;2.75;;;;;23.03;51.90;101342.59;5057071;28;45349;-80
2022/07/12 02:06:35;;;;;;;;;2.00;2.00;;;;;23.07;51.87;101352.22;5066592;28;46338;-80
2022/07/12 02:09:00;;;;;;;;;2.00;1.00;;;;;23.07;51.44;101343.28;5079272;27;45430;-79
2022/07/12 02:11:26;;;;;;;;;2.25;1.50;;;;;22.98;51.89;101333.06;5069510;28;45387;-80
2022/07/12 02:13:51;;;;;;;;;2.00;2.00;;;;;22.91;51.70;101323.59;5066610;28;45314;-81
2022/07/12 02:16:17;;;;;;;;;1.75;1.00;;;;;23.03;51.44;101356.09;5053313;27;46473;-80
2022/07/12 02:18:43;;;;;;;;;2.00;2.00;;;;;22.80;51.67;101308.94;5064109;27;45430;-78
2022/07/12 02:21:08;;;;;;;;;2.25;2.25;;;;;22.90;51.74;101330.81;5072542;28;45341;-81
2022/07/12 02:23:33;;;;;;;;;2.50;1.00;;;;;22.87;51.58;101334.56;5073133;27;45665;-79
2022/07/12 02:25:59;;;;;;;;;1.75;1.75;;;;;23.00;52.12;101350.00;5061997;27;45477;-80
2022/07/12 02:28:24;;;;;;;;;1.75;1.75;;;;;22.86;51.78;101334.66;5062833;28;45421;-80
2022/07/12 02:30:50;;;;;;;;;1.00;1.00;;;;;22.80;51.86;101322.41;5063376;28;45398;-80
2022/07/12 02:33:19;;;;;;;;;1.00;1.00;;;;;22.91;51.88;101347.84;5055233;28;45567;-80
2022/07/12 02:35:45;;;;;;;;;1.00;0.75;;;;;22.84;51.83;101344.66;5060534;28;45484;-80
2022/07/12 02:38:11;;;;;;;;;1.75;1.75;;;;;22.84;52.03;101348.22;5054740;28;45335;-79
2022/07/12 02:40:54;;;;;;;;;2.00;2.00;;;;;22.83;52.02;101343.78;5067092;28;45307;-78
2022/07/12 02:43:26;;;;;;;;;1.50;1.50;;;;;22.60;51.92;101306.56;5077705;28;45530;-80
2022/07/12 02:45:53;;;;;;;;;2.25;2.25;;;;;22.82;52.30;101343.88;5072027;27;45955;-80
2022/07/12 02:48:19;;;;;;;;;0.75;0.75;;;;;22.54;52.43;101299.72;5055843;28;45422;-80
2022/07/12 02:50:44;;;;;;;;;1.00;1.00;;;;;22.79;52.24;101350.34;5059937;28;45335;-81
2022/07/12 02:53:10;;;;;;;;;2.50;2.00;;;;;22.77;52.45;101354.94;5073449;28;45443;-80
2022/07/12 02:55:36;;;;;;;;;1.00;1.00;;;;;22.66;52.54;101342.09;5065250;27;46531;-80
2022/07/12 02:58:03;;;;;;;;;2.00;1.75;;;;;22.61;52.57;101340.63;5057285;28;45371;-82
2022/07/12 03:00:29;;;;;;;;;1.50;1.50;;;;;22.62;52.46;101350.44;5059583;28;45678;-79
2022/07/12 03:02:54;;;;;;;;;4.75;2.50;;;;;22.62;52.53;101353.13;5076013;28;45592;-80
2022/07/12 03:05:20;;;;;;;;;2.25;1.00;;;;;22.63;52.94;101357.56;5070888;28;45387;-80
2022/07/12 03:07:45;;;;;;;;;1.00;1.00;;;;;22.64;52.86;101365.56;5075710;28;45494;-81
2022/07/12 03:10:11;;;;;;;;;3.00;3.00;;;;;22.43;52.51;101340.75;5077049;27;45366;-80
2022/07/12 03:12:37;;;;;;;;;1.50;1.00;;;;;22.52;52.65;101359.06;5066290;28;45435;-81
2022/07/12 03:15:03;;;;;;;;;2.50;1.25;;;;;22.62;52.69;101369.28;5071938;27;46084;-81
2022/07/12 03:17:29;;;;;;;;;2.75;2.25;;;;;22.62;52.62;101369.28;5065743;28;45339;-81
2022/07/12 03:19:54;;;;;;;;;2.25;2.00;;;;;22.56;52.42;101351.66;5070928;27;45453;-79
2022/07/12 03:22:19;;;;;;;;;2.50;2.50;;;;;22.52;52.44;101350.97;5076598;27;45261;-80
2022/07/12 03:24:45;;;;;;;;;1.25;1.25;;;;;22.38;52.56;101328.50;5066983;28;45419;-78
2022/07/12 03:27:10;;;;;;;;;2.00;2.00;;;;;22.52;52.83;101342.91;5056572;28;45270;-79
2022/07/12 03:29:37;;;;;;;;;1.00;1.00;;;;;22.58;52.84;101362.34;5060466;28;45330;-80
2022/07/12 03:32:03;;;;;;;;;2.00;2.00;;;;;22.47;52.98;101344.13;5078261;27;45296;-79
2022/07/12 03:34:28;;;;;;;;;3.00;3.00;;;;;22.08;52.95;101286.22;5069355;27;46145;-80
2022/07/12 03:36:54;;;;;;;;;1.25;1.25;;;;;22.50;52.78;101366.38;5075899;28;45546;-80
2022/07/12 03:39:19;;;;;;;;;2.00;1.00;;;;;22.46;52.95;101362.13;5075399;28;45399;-79
2022/07/12 03:41:44;;;;;;;;;2.50;1.50;;;;;22.22;52.96;101323.13;5075545;27;45544;-80
2022/07/12 03:44:10;;;;;;;;;1.75;1.75;;;;;22.29;52.48;101338.81;5073607;28;45391;-79
2022/07/12 03:46:35;;;;;;;;;2.75;1.75;;;;;22.27;52.90;101335.31;5056432;28;45420;-80
2022/07/12 03:49:01;;;;;;;;;2.00;2.00;;;;;22.37;52.71;101343.78;5051111;28;45445;-79
2022/07/12 03:51:26;;;;;;;;;3.00;1.75;;;;;22.43;52.67;101369.50;5068233;28;45442;-79
2022/07/12 03:53:52;;;;;;;;;5.50;3.00;;;;;22.45;52.75;101371.13;5074894;27;45466;-80
2022/07/12 03:59:02;;;;;;;;;2.00;2.00;;;;;22.38;52.74;101371.56;5061486;28;45573;-80
2022/07/12 04:01:27;;;;;;;;;1.50;1.50;;;;;22.28;53.08;101364.00;5069249;27;45679;-78
2022/07/12 04:03:52;;;;;;;;;3.00;3.00;;;;;22.35;53.16;101378.03;5069718;27;46199;-79
2022/07/12 04:06:18;;;;;;;;;1.25;1.00;;;;;22.34;53.01;101378.97;5063373;28;45508;-79
2022/07/12 04:08:43;;;;;;;;;2.75;2.75;;;;;22.33;52.87;101374.53;5069541;28;45505;-80
2022/07/12 04:11:08;;;;;;;;;2.00;2.00;;;;;22.38;52.82;101375.16;5055990;28;45539;-79
2022/07/12 04:13:34;;;;;;;;;1.50;1.50;;;;;22.44;52.94;101388.28;5066579;28;46442;-79
2022/07/12 04:16:00;;;;;;;;;2.00;2.00;;;;;22.49;52.97;101386.16;5061228;28;45444;-80
2022/07/12 04:18:25;;;;;;;;;2.00;2.00;;;;;22.50;52.66;101385.22;5056091;28;45501;-80
2022/07/12 04:20:50;;;;;;;;;4.00;2.25;;;;;22.67;52.19;101396.84;5057923;28;45525;-80
2022/07/12 04:23:16;;;;;;;;;2.00;2.00;;;;;22.76;51.71;101399.00;5071376;28;46183;-80
2022/07/12 04:25:41;;;;;;;;;2.00;2.00;;;;;22.65;51.97;101385.28;5075490;27;45462;-80
2022/07/12 04:28:07;;;;;;;;;5.25;3.00;;;;;22.64;52.32;101395.19;5076209;28;45429;-79
2022/07/12 04:30:32;;;;;;;;;5.25;3.50;;;;;22.69;52.17;101397.63;5070728;27;45622;-79
2022/07/12 04:32:57;;;;;;;;;2.75;2.75;;;;;22.65;52.30;101390.66;5058057;28;46565;-79
2022/07/12 04:35:23;;;;;;;;;2.00;2.00;;;;;22.72;52.15;101400.13;5062568;27;45242;-80
2022/07/12 04:37:48;;;;;;;;;2.25;2.25;;;;;22.70;52.17;101404.75;5056181;28;45237;-80
2022/07/12 04:40:13;;;;;;;;;2.25;2.25;;;;;22.66;52.00;101389.72;5074810;28;45366;-80
2022/07/12 04:42:39;;;;;;;;;4.50;2.50;;;;;22.63;52.22;101392.59;5062054;27;45341;-80
2022/07/12 04:45:05;;;;;;;;;5.00;2.75;;;;;22.56;52.54;101380.44;5055347;28;45508;-79
2022/07/12 04:47:30;;;;;;;;;5.75;3.00;;;;;22.65;52.40;101391.56;5055011;28;45441;-80
2022/07/12 04:49:55;;;;;;;;;3.75;3.00;;;;;22.80;52.29;101405.94;5062386;28;45459;-81
2022/07/12 04:52:22;;;;;;;;;2.50;2.50;;;;;22.88;52.04;101395.59;5069313;28;46517;-80
2022/07/12 04:54:47;;;;;;;;;5.75;3.00;;;;;23.02;51.51;101388.53;5055481;28;45452;-80
2022/07/12 04:57:13;;;;;;;;;5.75;5.75;;;;;23.28;51.30;101400.47;5069451;27;45397;-78
2022/07/12 04:59:38;;;;;;;;;6.00;6.00;;;;;23.54;50.12;101389.91;5051214;28;45462;-79
2022/07/12 05:02:04;;;;;;;;;5.50;5.00;;;;;24.11;49.92;101399.84;5066512;28;45466;-80
2022/07/12 05:04:33;;;;;;;;;3.25;3.25;;;;;24.80;48.16;101408.84;5058231;28;45288;-80
2022/07/12 05:06:59;;;;;;;;;6.75;4.50;;;;;25.61;47.16;101404.25;5056195;28;45417;-79
2022/07/12 05:09:24;;;;;;;;;5.00;3.75;;;;;26.53;45.06;101402.16;5068796;28;45485;-79
2022/07/12 05:11:49;;;;;;;;;5.00;5.00;;;;;27.38;42.69;101401.19;5074614;27;45517;-80
2022/07/12 05:14:15;;;;;;;;;5.75;5.00;;;;;28.03;41.53;101404.25;5060904;28;45379;-80
2022/07/12 05:16:40;;;;;;;;;5.00;3.25;;;;;28.71;40.28;101401.38;5053000;28;45509;-81
2022/07/12 05:19:06;;;;;;;;;7.75;5.25;;;;;29.32;38.97;101387.16;5062808;28;45510;-80
2022/07/12 05:21:33;;;;;;;;;4.00;4.00;;;;;30.07;37.39;101404.16;5061869;27;45544;-80
2022/07/12 05:23:59;;;;;;;;;5.50;5.25;;;;;30.49;35.96;101397.72;5057464;28;45426;-81
2022/07/12 05:26:24;;;;;;;;;9.00;8.00;;;;;30.86;35.20;101390.69;5072427;27;45364;-81
2022/07/12 05:28:50;;;;;;;;;5.00;4.75;;;;;31.30;34.13;101383.78;5055421;28;45530;-81
2022/07/12 05:31:15;;;;;;;;;4.25;3.25;;;;;31.94;34.73;101407.75;5054389;28;45990;-80
2022/07/12 05:33:41;;;;;;;;;10.00;10.00;;;;;32.61;33.65;101419.31;5055426;28;45416;-77
2022/07/12 05:36:06;;;;;;;;;6.00;5.50;;;;;32.86;32.51;101403.19;5057879;28;45381;-79
2022/07/12 05:38:31;;;;;;;;;5.00;5.00;;;;;33.22;32.09;101405.91;5056632;28;45360;-81
2022/07/12 05:40:57;;;;;;;;;7.00;4.25;;;;;33.45;31.24;101401.63;5068526;28;45506;-78
2022/07/12 05:43:22;;;;;;;;;4.00;4.00;;;;;33.93;30.61;101423.16;5072180;27;45370;-79
2022/07/12 05:45:48;;;;;;;;;4.00;4.00;;;;;33.69;29.95;101388.22;5060962;28;45287;-79
2022/07/12 05:48:13;;;;;;;;;5.25;5.25;;;;;33.60;30.53;101425.66;5090580;27;45893;-78
2022/07/12 05:50:40;;;;;;;;;6.00;4.75;;;;;33.47;31.37;101409.69;5060871;28;46067;-84
2022/07/12 05:53:23;;;;;;;;;5.00;4.00;;;;;33.77;30.74;101429.41;5062889;27;45379;-80
2022/07/12 05:55:53;;;;;;;;;3.00;3.00;;;;;33.97;30.08;101421.81;5060316;28;45419;-80
2022/07/12 05:58:20;;;;;;;;;4.00;3.25;;;;;34.29;29.64;101432.06;5070453;27;45387;-80
2022/07/12 06:00:46;;;;;;;;;2.25;2.25;;;;;34.18;29.95;101429.63;5061344;28;45390;-80
2022/07/12 06:03:17;;;;;;;;;4.25;3.00;;;;;34.11;30.25;101415.69;5073151;27;45514;-80
2022/07/12 06:05:43;;;;;;;;;7.00;5.00;;;;;34.50;29.81;101428.88;5066088;28;45731;-80
2022/07/12 06:08:09;;;;;;;;;6.75;5.25;;;;;35.01;28.71;101441.66;5068744;28;45470;-80
2022/07/12 06:10:34;;;;;;;;;4.75;4.75;;;;;35.10;28.93;101435.16;5060999;28;45605;-81
2022/07/12 06:13:01;;;;;;;;;3.00;3.00;;;;;35.27;28.20;101446.16;5073578;27;45409;-80
2022/07/12 06:15:26;;;;;;;;;7.50;4.00;;;;;35.56;27.87;101440.97;5065860;27;45370;-80
2022/07/12 06:17:52;;;;;;;;;5.25;5.25;;;;;35.86;27.28;101424.78;5057570;28;45418;-80
2022/07/12 06:20:17;;;;;;;;;4.50;4.50;;;;;36.16;26.51;101449.75;5065801;28;46184;-80
2022/07/12 06:22:43;;;;;;;;;5.00;5.00;;;;;36.36;26.90;101458.44;5059528;28;45481;-80
2022/07/12 06:25:08;;;;;;;;;7.75;6.00;;;;;36.41;26.59;101455.16;5053004;28;45484;-78
2022/07/12 06:27:34;;;;;;;;;6.00;4.50;;;;;36.32;26.95;101446.13;5065473;28;45392;-79
2022/07/12 06:29:59;;;;;;;;;3.75;3.75;;;;;36.53;26.78;101450.13;5077265;28;46360;-81
2022/07/12 06:32:25;;;;;;;;;3.00;3.00;;;;;37.23;25.89;101426.22;5063026;28;45482;-79
2022/07/12 06:34:50;;;;;;;;;4.50;4.50;;;;;37.57;24.97;101436.75;5063790;28;45781;-80
2022/07/12 06:37:15;;;;;;;;;4.75;4.75;;;;;37.83;24.97;101443.75;5059779;28;45468;-80
2022/07/12 06:39:41;;;;;;;;;7.25;7.00;;;;;37.66;24.74;101451.31;5057548;28;45747;-81
2022/07/12 06:42:07;;;;;;;;;6.25;6.25;;;;;37.45;24.88;101419.81;5055718;28;45471;-80
2022/07/12 06:44:33;;;;;;;;;9.50;8.50;;;;;37.88;24.81;101452.28;5057332;28;46185;-80
2022/07/12 06:46:59;;;;;;;;;8.50;7.25;;;;;37.81;24.55;101456.84;5070348;28;45584;-80
2022/07/12 06:49:25;;;;;;;;;8.00;7.75;;;;;37.44;25.03;101453.91;5077551;27;46359;-80
2022/07/12 06:51:50;;;;;;;;;14.50;13.00;;;;;37.14;25.70;101451.09;5055224;28;45408;-80
2022/07/12 06:54:16;;;;;;;;;7.00;6.00;;;;;36.96;25.88;101447.78;5046802;28;45423;-80
2022/07/12 06:56:41;;;;;;;;;10.25;9.00;;;;;36.94;25.79;101453.50;5068779;28;45688;-78
2022/07/12 06:59:10;;;;;;;;;9.25;9.25;;;;;37.01;26.11;101455.50;5072484;28;46109;-79
2022/07/12 07:01:36;;;;;;;;;10.00;9.50;;;;;37.12;25.83;101438.53;5059928;27;45408;-81
2022/07/12 07:04:01;;;;;;;;;11.50;9.00;;;;;37.45;25.90;101463.06;5069539;28;45475;-80
2022/07/12 07:06:27;;;;;;;;;7.00;7.00;;;;;37.46;25.84;101457.38;5063238;27;45481;-79
2022/07/12 07:08:52;;;;;;;;;6.00;5.00;;;;;37.65;25.21;101425.63;5067690;27;45570;-80
2022/07/12 07:11:18;;;;;;;;;6.75;5.50;;;;;38.18;24.64;101466.09;5072717;28;45516;-79
2022/07/12 07:13:43;;;;;;;;;5.50;5.50;;;;;38.59;24.42;101459.16;5067684;28;45487;-80
2022/07/12 07:16:09;;;;;;;;;8.25;7.25;;;;;38.60;23.99;101450.69;5074783;28;45379;-80
2022/07/12 07:18:34;;;;;;;;;7.50;6.50;;;;;38.65;24.04;101455.66;5054811;28;45576;-79
2022/07/12 07:20:59;;;;;;;;;5.25;5.25;;;;;39.04;24.13;101468.13;5067015;28;45586;-79
2022/07/12 07:23:25;;;;;;;;;8.00;8.00;;;;;39.40;24.08;101440.44;5063895;28;45443;-79
2022/07/12 07:25:50;;;;;;;;;5.00;5.00;;;;;39.31;24.01;101463.72;5074709;27;45419;-79
2022/07/12 07:28:15;;;;;;;;;6.75;6.75;;;;;39.33;23.02;101461.63;5076108;28;45510;-81
2022/07/12 07:30:52;;;;;;;;;7.00;7.00;;;;;39.37;23.56;101459.31;5061600;27;45377;-80
2022/07/12 07:33:25;;;;;;;;;8.00;7.50;;;;;39.62;23.60;101473.56;5075870;28;45470;-80
2022/07/12 07:35:51;;;;;;;;;8.75;7.25;;;;;39.49;22.74;101470.69;5067457;27;45439;-80
2022/07/12 07:38:17;;;;;;;;;8.75;8.75;;;;;39.42;23.16;101460.44;5075049;27;45312;-80
2022/07/12 07:40:43;;;;;;;;;8.50;6.25;;;;;39.82;22.95;101468.16;5062575;28;45427;-80
2022/07/12 07:43:09;;;;;;;;;8.75;7.00;;;;;40.30;22.13;101461.84;5072385;28;45205;-80
2022/07/12 07:45:34;;;;;;;;;7.50;5.75;;;;;40.59;22.23;101462.59;5056213;28;45434;-79
2022/07/12 07:48:01;;;;;;;;;9.25;8.25;;;;;40.89;21.20;101463.09;5052400;28;45344;-81
2022/07/12 07:50:27;;;;;;;;;7.00;6.50;;;;;40.90;21.48;101461.22;5060207;28;45336;-79
2022/07/12 07:52:53;;;;;;;;;7.25;5.75;;;;;40.78;21.87;101461.78;5077784;27;45434;-80
2022/07/12 07:55:18;;;;;;;;;5.75;5.75;;;;;40.64;22.48;101476.69;5087450;27;44827;-80
2022/07/12 07:57:44;;;;;;;;;4.00;4.00;;;;;40.59;21.65;101476.44;5056503;28;45779;-79
2022/07/12 08:00:10;;;;;;;;;3.50;3.50;;;;;40.38;22.07;101469.13;5056479;28;45342;-81
2022/07/12 08:02:36;;;;;;;;;6.00;6.00;;;;;40.24;22.55;101466.28;5055282;28;45554;-78
2022/07/12 08:05:02;;;;;;;;;5.00;5.00;;;;;40.19;22.30;101485.41;5055137;28;45370;-79
2022/07/12 08:07:27;;;;;;;;;7.75;6.50;;;;;40.38;22.29;101467.19;5078864;27;46431;-80
2022/07/12 08:09:52;;;;;;;;;3.25;3.25;;;;;40.72;21.83;101475.63;5082270;27;45538;-79
2022/07/12 08:12:18;;;;;;;;;6.00;6.00;;;;;40.96;21.91;101475.06;5045225;28;45468;-81
2022/07/12 08:14:43;;;;;;;;;8.50;8.50;;;;;41.12;21.65;101476.56;5038386;28;45461;-79
2022/07/12 08:17:09;;;;;;;;;6.00;5.00;;;;;41.29;22.59;101476.16;5083369;27;46582;-79
2022/07/12 08:19:34;;;;;;;;;6.75;6.25;;;;;41.64;21.00;101478.72;5046103;28;45498;-79
2022/07/12 08:22:00;;;;;;;;;7.00;6.00;;;;;41.83;21.00;101471.44;5082304;27;46039;-78
2022/07/12 08:24:25;;;;;;;;;5.50;4.50;;;;;41.65;21.80;101458.22;5034691;28;45472;-79
2022/07/12 08:26:50;;;;;;;;;4.00;4.00;;;;;41.80;20.80;101464.38;5034761;28;45486;-79
2022/07/12 08:29:16;;;;;;;;;8.50;7.00;;;;;41.63;21.04;101477.00;5047515;28;45441;-79
2022/07/12 08:31:41;;;;;;;;;9.25;9.25;;;;;41.54;21.38;101485.56;5066430;28;45664;-79
2022/07/12 08:34:07;;;;;;;;;7.50;7.50;;;;;41.30;21.14;101486.16;5057177;27;45470;-78
2022/07/12 08:36:32;;;;;;;;;7.00;5.50;;;;;41.18;20.52;101486.81;5052663;28;45555;-79
2022/07/12 08:38:58;;;;;;;;;15.00;12.75;;;;;41.18;21.36;101475.72;5039350;28;45407;-79
2022/07/12 08:41:23;;;;;;;;;5.25;5.00;;;;;41.30;21.01;101475.97;5053527;28;45696;-79
2022/07/12 08:43:48;;;;;;;;;3.00;3.00;;;;;41.68;21.56;101468.88;5046375;28;45359;-78
2022/07/12 08:46:15;;;;;;;;;3.50;3.50;;;;;42.03;20.56;101471.38;5036510;28;46051;-79
2022/07/12 08:48:43;;;;;;;;;5.00;5.00;;;;;42.20;20.12;101469.00;5064572;27;45548;-80
2022/07/12 08:51:11;;;;;;;;;5.75;3.75;;;;;41.80;19.93;101478.25;5053553;28;45496;-79
2022/07/12 08:53:37;;;;;;;;;4.50;4.50;;;;;41.72;20.47;101478.47;5038323;28;45471;-80
2022/07/12 08:56:04;;;;;;;;;5.50;4.50;;;;;41.94;21.81;101467.13;5053418;28;46525;-79
2022/07/12 08:58:29;;;;;;;;;4.50;4.50;;;;;42.25;19.42;101475.59;5052412;28;45412;-80
2022/07/12 09:00:55;;;;;;;;;4.50;3.50;;;;;42.17;19.93;101484.16;5053317;28;45471;-80
2022/07/12 09:03:20;;;;;;;;;1.00;1.00;;;;;41.87;19.84;101468.00;5035734;28;45419;-79
2022/07/12 09:05:51;;;;;;;;;3.75;3.75;;;;;42.03;20.38;101483.34;5044463;28;45348;-79
2022/07/12 09:08:17;;;;;;;;;2.00;2.00;;;;;42.21;19.73;101477.13;5054277;28;45493;-80
2022/07/12 09:10:57;;;;;;;;;4.00;3.00;;;;;42.08;19.07;101477.13;5057525;28;45429;-79
2022/07/12 09:13:45;;;;;;;;;2.50;2.50;;;;;41.97;19.06;101477.78;5054657;28;45459;-81
2022/07/12 09:16:15;;;;;;;;;2.00;2.00;;;;;42.07;19.51;101483.75;5051033;28;45524;-79
2022/07/12 09:18:42;;;;;;;;;2.75;1.50;;;;;41.88;19.18;101468.88;5066898;27;45535;-80
2022/07/12 09:21:07;;;;;;;;;2.50;2.50;;;;;41.94;19.45;101469.91;5035029;28;45512;-81
2022/07/12 09:23:33;;;;;;;;;3.00;3.00;;;;;41.65;19.47;101475.72;5061912;28;45431;-79
2022/07/12 09:25:58;;;;;;;;;1.50;1.50;;;;;41.49;18.79;101482.56;5055963;27;45423;-79
2022/07/12 09:28:24;;;;;;;;;1.75;1.75;;;;;41.63;20.17;101447.34;5053745;28;45485;-80
2022/07/12 09:30:53;;;;;;;;;3.00;2.25;;;;;41.67;18.80;101481.06;5053941;28;45289;-79
2022/07/12 09:36:12;;;;;;;;;1.00;1.00;;;;;41.65;19.08;101477.63;5045485;28;45800;-79
2022/07/12 09:39:00;;;;;;;;;3.75;3.75;;;;;42.01;18.58;101479.06;5052032;28;45409;-79
2022/07/12 09:41:27;;;;;;;;;2.25;2.25;;;;;42.28;20.84;101481.78;5057687;28;45434;-79
2022/07/12 09:43:53;;;;;;;;;2.00;2.00;;;;;42.49;19.25;101469.50;5053801;28;45549;-78
2022/07/12 09:46:19;;;;;;;;;2.00;2.00;;;;;42.34;17.40;101467.03;5054532;28;45609;-78
2022/07/12 09:48:46;;;;;;;;;2.00;2.00;;;;;41.72;18.38;101484.88;5040753;28;45531;-79
2022/07/12 09:51:16;;;;;;;;;2.00;2.00;;;;;41.46;18.97;101452.50;5049071;28;45546;-79
2022/07/12 09:53:44;;;;;;;;;0.25;0.25;;;;;41.50;18.97;101461.22;5045452;28;45467;-79
2022/07/12 09:56:12;;;;;;;;;2.25;2.25;;;;;41.79;19.80;101482.13;5067790;28;45666;-79
2022/07/12 09:58:43;;;;;;;;;3.00;3.00;;;;;42.02;19.75;101466.91;5049617;27;45442;-79
2022/07/12 10:01:10;;;;;;;;;2.75;2.75;;;;;41.88;18.38;101483.59;5055109;28;45430;-79
2022/07/12 10:03:39;;;;;;;;;4.00;4.00;;;;;41.86;18.70;101495.97;5052894;28;45333;-79
2022/07/12 10:06:07;;;;;;;;;3.50;3.50;;;;;41.82;19.60;101481.69;5051606;28;45498;-79
2022/07/12 10:08:32;;;;;;;;;3.75;3.00;;;;;41.81;17.96;101479.97;5086364;27;45557;-80
2022/07/12 10:10:58;;;;;;;;;1.00;1.00;;;;;41.59;18.26;101459.94;5048005;28;45522;-79
2022/07/12 10:13:25;;;;;;;;;1.75;1.75;;;;;41.71;19.06;101465.66;5057343;28;45464;-79
2022/07/12 10:15:57;;;;;;;;;2.25;2.25;;;;;42.00;18.07;101488.47;5053165;28;48196;-79
2022/07/12 10:18:23;;;;;;;;;2.00;2.00;;;;;42.08;18.87;101485.47;5032473;28;45383;-79
2022/07/12 10:20:49;;;;;;;;;2.50;2.50;;;;;42.43;18.32;101476.78;5051278;28;45599;-79
2022/07/12 10:23:34;;;;;;;;;3.25;3.25;;;;;42.71;18.17;101478.38;5038637;28;45633;-79
2022/07/12 10:26:21;;;;;;;;;4.25;4.25;;;;;42.67;17.60;101474.31;5046423;28;45463;-79
2022/07/12 10:29:01;;;;;;;;;1.00;1.00;;;;;42.37;16.71;101477.69;5054473;28;45417;-79
2022/07/12 10:31:35;;;;;;;;;3.00;3.00;;;;;42.21;18.04;101457.69;5072713;28;45421;-79
2022/07/12 10:34:21;;;;;;;;;4.75;3.50;;;;;42.18;17.16;101480.34;5068617;27;45479;-80
2022/07/12 10:36:55;;;;;;;;;2.00;2.00;;;;;41.93;17.10;101482.09;5041189;28;46506;-80
2022/07/12 10:39:21;;;;;;;;;1.25;1.25;;;;;41.90;17.32;101472.28;5048498;28;45564;-80
2022/07/12 10:42:05;;;;;;;;;2.50;2.50;;;;;41.77;17.26;101475.91;5055678;28;45321;-79
2022/07/12 10:45:13;;;;;;;;;2.25;2.25;;;;;41.50;17.06;101472.31;5064377;28;45285;-80
2022/07/12 10:47:58;;;;;;;;;1.50;1.50;;;;;41.78;17.20;101476.78;5053165;28;45544;-80
2022/07/12 10:53:18;;;;;;;;;4.00;3.00;;;;;41.48;17.21;101489.16;5048134;28;45506;-78
2022/07/12 10:56:21;;;;;;;;;3.00;3.00;;;;;40.92;17.24;101464.59;5051875;28;45419;-80
2022/07/12 10:58:54;;;;;;;;;1.00;1.00;;;;;40.72;18.05;101465.41;4990419;28;46423;-80
2022/07/12 11:01:38;;;;;;;;;2.00;2.00;;;;;40.72;17.84;101467.31;4993932;28;45574;-79
2022/07/12 11:04:07;;;;;;;;;2.50;2.50;;;;;40.80;18.17;101473.53;4993979;28;45494;-80
2022/07/12 11:06:39;;;;;;;;;3.25;3.25;;;;;40.91;18.34;101468.44;4993366;28;45620;-79
2022/07/12 11:09:09;;;;;;;;;2.00;2.00;;;;;40.60;17.60;101467.06;4977035;28;46308;-80
2022/07/12 11:11:44;;;;;;;;;2.75;1.50;;;;;40.83;17.74;101459.25;4994031;28;45535;-78
2022/07/12 11:14:11;;;;;;;;;2.00;2.00;;;;;41.14;17.15;101455.03;5014015;28;45323;-80
2022/07/12 11:16:47;;;;;;;;;6.00;5.50;;;;;41.26;16.74;101454.41;4995094;28;45482;-80
2022/07/12 11:19:12;;;;;;;;;5.00;4.00;;;;;40.99;17.80;101471.03;4993657;28;45557;-80
2022/07/12 11:21:38;;;;;;;;;3.00;3.00;;;;;40.84;17.73;101458.16;4992596;28;45516;-79
2022/07/12 11:24:19;;;;;;;;;3.00;3.00;;;;;40.98;18.05;101438.81;4993833;28;45633;-78
2022/07/12 11:26:44;;;;;;;;;2.00;2.00;;;;;41.18;17.73;101448.00;4977545;28;45438;-79
2022/07/12 11:29:11;;;;;;;;;4.00;3.00;;;;;41.18;17.16;101464.63;5002792;28;45526;-79
2022/07/12 11:31:37;;;;;;;;;5.00;4.00;;;;;40.61;17.53;101457.72;4997164;28;45493;-80
2022/07/12 11:34:02;;;;;;;;;3.00;3.00;;;;;40.21;16.38;101465.84;4992648;28;45567;-77
2022/07/12 11:36:30;;;;;;;;;3.25;2.00;;;;;40.28;16.40;101453.72;5029991;28;45393;-79